Time;durP1;ratioP1;P1;durP2;ratioP2;P2;SDS_P1;SDS_P2;PMS_P1;PMS_P2;Temp;Humidity;BMP_temperature;BMP_pressure;BME280_temperature;BME280_humidity;BME280_pressure;Samples;Min_cycle;Max_cycle;Signal;HPM_P1;HPM_P2
2023/04/13 03:01:05;;;;;;;8.70;8.07;;;5.30;99.90;;;;;;5585928;23;20272;-78
2023/04/13 03:03:32;;;;;;;9.73;9.33;;;5.30;99.90;;;;;;4935973;29;20237;-79
2023/04/13 03:06:00;;;;;;;10.93;10.40;;;5.40;99.90;;;;;;4918698;29;20305;-79
2023/04/13 03:08:26;;;;;;;42.17;40.17;;;5.40;99.90;;;;;;4921624;29;20320;-80
2023/04/13 03:10:53;;;;;;;9.27;8.87;;;5.40;99.90;;;;;;4934071;29;20285;-79
2023/04/13 03:13:19;;;;;;;6.03;5.83;;;5.40;99.90;;;;;;4903046;29;20183;-79
2023/04/13 03:15:45;;;;;;;4.90;4.60;;;5.50;99.90;;;;;;4902870;29;20345;-79
2023/04/13 03:18:12;;;;;;;7.20;6.87;;;5.60;99.90;;;;;;4920360;29;20269;-79
2023/04/13 03:20:37;;;;;;;9.47;8.97;;;5.60;99.90;;;;;;4919460;29;20206;-79
2023/04/13 03:23:04;;;;;;;9.37;8.73;;;5.80;99.90;;;;;;4907236;29;20202;-78
2023/04/13 03:25:30;;;;;;;47.60;45.23;;;5.90;99.90;;;;;;4910189;29;20214;-78
2023/04/13 03:27:56;;;;;;;15.13;14.50;;;5.90;99.90;;;;;;4904861;29;20244;-79
2023/04/13 03:30:22;;;;;;;5.63;5.33;;;5.90;99.90;;;;;;4890520;29;20179;-78
2023/04/13 03:32:47;;;;;;;5.00;4.80;;;5.90;99.90;;;;;;4904553;29;20191;-79
2023/04/13 03:35:13;;;;;;;5.20;5.00;;;5.90;99.90;;;;;;4903890;29;20222;-79
2023/04/13 03:37:42;;;;;;;4.77;4.57;;;5.90;99.90;;;;;;4903449;29;20656;-79
2023/04/13 03:40:11;;;;;;;4.77;4.50;;;5.90;99.90;;;;;;4909228;29;20183;-79
2023/04/13 03:42:37;;;;;;;4.97;4.77;;;6.00;99.90;;;;;;4907979;29;20225;-79
2023/04/13 03:45:04;;;;;;;5.07;4.67;;;6.00;99.90;;;;;;4908609;29;20233;-80
2023/04/13 03:47:30;;;;;;;5.13;4.80;;;6.00;99.90;;;;;;4904546;29;20179;-79
2023/04/13 03:49:56;;;;;;;6.43;5.40;;;6.00;99.90;;;;;;4902859;29;20635;-80
2023/04/13 03:52:21;;;;;;;5.27;5.07;;;6.00;99.90;;;;;;4903226;29;20286;-79
2023/04/13 03:54:47;;;;;;;7.13;6.63;;;5.90;99.90;;;;;;4902783;29;20195;-80
2023/04/13 03:57:13;;;;;;;7.30;6.80;;;5.90;99.90;;;;;;4920140;29;20373;-81
2023/04/13 03:59:39;;;;;;;7.80;5.93;;;5.90;99.90;;;;;;4916830;29;20179;-73
2023/04/13 04:02:05;;;;;;;9.97;9.47;;;6.10;99.90;;;;;;4900284;29;20218;-72
2023/04/13 04:04:31;;;;;;;37.00;35.13;;;6.10;99.90;;;;;;4916558;29;20605;-72
2023/04/13 04:06:58;;;;;;;44.40;42.30;;;6.10;99.90;;;;;;4900173;29;20217;-72
2023/04/13 04:09:24;;;;;;;22.07;21.00;;;6.10;99.90;;;;;;4899674;29;20179;-72
2023/04/13 04:11:50;;;;;;;20.17;19.27;;;6.10;99.90;;;;;;4916969;29;20203;-72
2023/04/13 04:14:17;;;;;;;18.67;17.77;;;6.10;99.90;;;;;;4899980;29;20203;-72
2023/04/13 04:16:42;;;;;;;17.93;17.03;;;6.10;99.90;;;;;;4900081;29;20207;-73
2023/04/13 04:19:08;;;;;;;22.43;21.10;;;6.10;99.90;;;;;;4915997;29;20235;-73
2023/04/13 04:21:34;;;;;;;20.43;19.43;;;6.10;99.90;;;;;;4899825;29;20214;-72
2023/04/13 04:24:05;;;;;;;22.57;21.37;;;6.10;99.90;;;;;;4909876;29;20210;-72
2023/04/13 04:26:31;;;;;;;20.43;19.33;;;6.10;99.90;;;;;;4904667;29;20191;-72
2023/04/13 04:29:02;;;;;;;12.83;12.23;;;6.30;99.90;;;;;;4899090;29;20190;-72
2023/04/13 04:31:33;;;;;;;8.73;8.33;;;6.40;99.90;;;;;;4917940;29;20218;-72
2023/04/13 04:34:00;;;;;;;7.00;6.70;;;6.50;99.90;;;;;;4899544;29;20209;-72
2023/04/13 04:36:26;;;;;;;5.53;5.13;;;6.60;99.90;;;;;;4916271;29;20183;-72
2023/04/13 04:38:56;;;;;;;6.30;5.97;;;6.70;99.90;;;;;;4916902;29;20190;-73
2023/04/13 04:41:23;;;;;;;10.57;9.77;;;6.80;99.90;;;;;;4916531;29;20207;-72
2023/04/13 04:43:49;;;;;;;9.87;9.37;;;6.90;99.90;;;;;;4914786;29;20205;-72
2023/04/13 04:46:15;;;;;;;8.40;7.87;;;7.00;99.90;;;;;;4934003;29;20734;-71
2023/04/13 04:48:41;;;;;;;6.13;5.80;;;7.00;99.90;;;;;;4915688;29;20639;-72
2023/04/13 04:51:07;;;;;;;5.03;4.63;;;7.00;99.90;;;;;;4934004;29;20639;-71
2023/04/13 04:53:33;;;;;;;5.57;5.27;;;7.10;99.90;;;;;;4917512;29;20246;-72
2023/04/13 04:55:59;;;;;;;5.93;5.53;;;7.10;99.90;;;;;;4933796;29;20238;-71
2023/04/13 04:58:25;;;;;;;4.33;4.13;;;7.10;99.90;;;;;;4934176;29;20178;-71
2023/04/13 05:00:52;;;;;;;5.93;5.43;;;7.20;99.90;;;;;;4916426;29;20218;-72
2023/04/13 05:03:19;;;;;;;10.27;9.43;;;7.20;99.90;;;;;;4916762;29;20209;-72
2023/04/13 05:05:45;;;;;;;10.43;9.43;;;7.30;99.90;;;;;;4916673;29;20633;-72
2023/04/13 05:08:11;;;;;;;7.50;7.20;;;7.30;99.90;;;;;;4916657;29;20390;-71
2023/04/13 05:10:42;;;;;;;8.23;7.57;;;7.30;99.90;;;;;;4933131;29;20647;-71
2023/04/13 05:13:08;;;;;;;10.43;9.80;;;7.30;99.90;;;;;;4933662;29;20678;-71
2023/04/13 05:15:34;;;;;;;28.17;25.87;;;7.40;99.90;;;;;;4933176;29;20261;-73
2023/04/13 05:18:00;;;;;;;10.57;9.97;;;7.40;99.90;;;;;;4933677;29;20209;-73
2023/04/13 05:20:26;;;;;;;11.33;10.53;;;7.50;99.90;;;;;;4915492;29;20234;-72
2023/04/13 05:22:52;;;;;;;9.17;8.67;;;7.50;99.90;;;;;;4914211;29;20191;-72
2023/04/13 05:25:18;;;;;;;9.20;8.37;;;7.60;99.90;;;;;;4914519;29;20217;-73
2023/04/13 05:27:44;;;;;;;10.20;9.37;;;7.60;99.90;;;;;;4914397;29;20221;-73
2023/04/13 05:30:10;;;;;;;9.00;8.47;;;7.70;99.90;;;;;;4913134;29;20176;-73
2023/04/13 05:32:36;;;;;;;6.73;6.37;;;7.70;99.90;;;;;;4913886;29;20321;-70
2023/04/13 05:35:03;;;;;;;6.87;6.27;;;7.80;99.90;;;;;;4914568;29;20759;-70
2023/04/13 05:37:29;;;;;;;6.83;6.00;;;7.90;99.90;;;;;;4914102;29;20563;-70
2023/04/13 05:39:55;;;;;;;5.97;5.50;;;8.00;99.90;;;;;;4913972;29;20183;-70
2023/04/13 05:42:21;;;;;;;5.70;5.37;;;8.10;99.90;;;;;;4915450;29;20214;-70
2023/04/13 05:44:46;;;;;;;6.77;6.37;;;8.10;99.90;;;;;;4915119;29;20207;-70
2023/04/13 05:47:12;;;;;;;14.83;6.47;;;8.10;99.90;;;;;;4915019;29;20659;-70
2023/04/13 05:49:38;;;;;;;8.10;7.50;;;8.10;99.90;;;;;;4898073;29;20230;-68
2023/04/13 05:52:06;;;;;;;7.87;7.47;;;8.20;99.90;;;;;;4915082;29;20210;-68
2023/04/13 05:54:32;;;;;;;9.13;8.23;;;8.20;99.90;;;;;;4914972;29;20543;-68
2023/04/13 05:56:58;;;;;;;8.17;7.20;;;8.30;99.90;;;;;;4915571;29;20195;-68
2023/04/13 05:59:25;;;;;;;7.97;7.47;;;8.20;99.90;;;;;;4914793;29;20227;-69
2023/04/13 06:01:50;;;;;;;7.53;6.83;;;8.30;99.90;;;;;;4914810;29;20222;-68
2023/04/13 06:04:17;;;;;;;9.77;6.27;;;8.30;99.90;;;;;;4915135;29;20234;-68
2023/04/13 06:06:44;;;;;;;6.37;5.90;;;8.30;99.90;;;;;;4915453;29;20183;-68
2023/04/13 06:09:09;;;;;;;6.43;6.07;;;8.30;99.90;;;;;;4914389;29;20183;-68
2023/04/13 06:11:35;;;;;;;8.23;5.93;;;8.30;99.90;;;;;;4914632;29;20210;-68
2023/04/13 06:14:01;;;;;;;5.30;4.80;;;8.20;99.90;;;;;;4914034;29;20656;-70
2023/04/13 06:16:27;;;;;;;6.90;4.37;;;8.20;99.90;;;;;;4896776;29;20180;-70
2023/04/13 06:18:53;;;;;;;5.53;5.00;;;8.20;99.90;;;;;;4914477;29;20183;-70
2023/04/13 06:21:19;;;;;;;5.10;4.73;;;8.10;99.90;;;;;;4914783;29;20237;-69
2023/04/13 06:23:45;;;;;;;5.07;4.67;;;8.20;99.90;;;;;;4913891;29;20207;-70
2023/04/13 06:26:11;;;;;;;5.43;4.43;;;8.30;99.90;;;;;;4897716;29;20215;-70
2023/04/13 06:28:37;;;;;;;5.93;4.73;;;8.30;99.90;;;;;;4914926;29;20174;-70
2023/04/13 06:31:03;;;;;;;5.60;4.67;;;8.30;99.90;;;;;;4914674;29;20215;-70
2023/04/13 06:33:30;;;;;;;5.20;4.87;;;8.40;99.90;;;;;;4898170;29;20179;-70
2023/04/13 06:35:56;;;;;;;8.90;4.73;;;8.30;99.90;;;;;;4898479;29;20189;-70
2023/04/13 06:38:22;;;;;;;6.53;4.63;;;8.30;99.90;;;;;;4914837;29;20270;-69
2023/04/13 06:40:47;;;;;;;5.80;5.50;;;8.30;99.90;;;;;;4898500;29;20244;-69
2023/04/13 06:43:13;;;;;;;5.87;5.40;;;8.30;99.90;;;;;;4918288;29;20202;-70
2023/04/13 06:45:39;;;;;;;5.03;4.57;;;8.30;99.90;;;;;;4902147;29;20746;-70
2023/04/13 06:48:05;;;;;;;6.53;4.27;;;8.40;99.90;;;;;;4919022;29;20529;-70
2023/04/13 06:50:31;;;;;;;4.73;4.33;;;8.40;99.90;;;;;;4901854;29;20198;-69
2023/04/13 06:52:57;;;;;;;8.73;4.40;;;8.50;99.90;;;;;;4902056;29;20179;-71
2023/04/13 06:55:22;;;;;;;7.50;5.57;;;8.70;99.90;;;;;;4918942;29;20391;-71
2023/04/13 06:57:48;;;;;;;7.33;6.83;;;8.80;99.90;;;;;;4918839;29;20190;-71
2023/04/13 07:00:14;;;;;;;7.20;6.80;;;8.90;99.90;;;;;;4901326;29;20195;-71
2023/04/13 07:02:40;;;;;;;6.30;5.70;;;8.90;99.90;;;;;;4919046;29;20194;-71
2023/04/13 07:05:07;;;;;;;6.33;5.30;;;9.00;99.90;;;;;;4918624;29;20582;-71
2023/04/13 07:07:33;;;;;;;7.00;5.73;;;9.00;99.90;;;;;;4919129;29;20212;-70
2023/04/13 07:09:59;;;;;;;7.00;6.40;;;9.00;99.90;;;;;;4918843;29;20190;-71
2023/04/13 07:12:25;;;;;;;6.87;6.33;;;8.90;99.90;;;;;;4918572;29;20566;-70
2023/04/13 07:14:50;;;;;;;6.00;5.60;;;9.00;99.90;;;;;;4901658;29;20198;-71
2023/04/13 07:17:17;;;;;;;7.67;7.17;;;9.30;99.90;;;;;;4918554;29;20645;-71
2023/04/13 07:19:46;;;;;;;14.67;13.63;;;9.50;99.90;;;;;;4918163;29;20191;-71
2023/04/13 07:22:12;;;;;;;14.83;14.00;;;9.60;99.90;;;;;;4918492;29;20252;-71
2023/04/13 07:24:38;;;;;;;14.33;13.53;;;9.60;99.90;;;;;;4918437;29;20706;-71
2023/04/13 07:27:04;;;;;;;9.50;8.90;;;9.70;99.90;;;;;;4918752;29;20183;-70
2023/04/13 07:29:30;;;;;;;7.43;5.70;;;9.60;99.90;;;;;;4918031;29;20185;-71
2023/04/13 07:32:04;;;;;;;5.70;5.30;;;9.60;99.90;;;;;;4918272;29;20199;-71
2023/04/13 07:34:30;;;;;;;4.17;3.80;;;9.70;99.90;;;;;;4918393;29;20272;-71
2023/04/13 07:36:56;;;;;;;6.73;4.70;;;9.60;99.90;;;;;;4901364;29;20330;-71
2023/04/13 07:39:22;;;;;;;4.13;3.67;;;9.60;99.90;;;;;;4900955;29;20187;-71
2023/04/13 07:41:48;;;;;;;3.67;3.47;;;9.70;99.90;;;;;;4918078;29;20211;-71
2023/04/13 07:44:14;;;;;;;3.90;3.60;;;9.90;99.90;;;;;;4918048;29;20191;-71
2023/04/13 07:46:39;;;;;;;5.53;5.17;;;9.90;99.90;;;;;;4901119;29;20555;-71
2023/04/13 07:49:05;;;;;;;6.20;5.87;;;9.70;99.90;;;;;;4917619;29;20183;-71
2023/04/13 07:51:33;;;;;;;6.27;4.10;;;9.60;99.90;;;;;;4901054;29;20203;-70
2023/04/13 07:54:00;;;;;;;4.77;4.37;;;9.50;99.90;;;;;;4916821;29;20222;-69
2023/04/13 07:56:26;;;;;;;6.07;3.73;;;9.50;99.90;;;;;;4918199;29;20650;-70
2023/04/13 07:58:52;;;;;;;5.33;4.03;;;9.50;99.90;;;;;;4917503;29;20195;-70
2023/04/13 08:01:20;;;;;;;7.80;5.47;;;9.60;99.90;;;;;;4917518;29;20574;-70
2023/04/13 08:03:46;;;;;;;8.13;4.83;;;9.70;99.90;;;;;;4917691;29;20190;-70
2023/04/13 08:06:12;;;;;;;9.13;5.00;;;9.70;99.90;;;;;;4917541;29;20226;-70
2023/04/13 08:08:38;;;;;;;8.17;7.40;;;9.80;99.90;;;;;;4917611;29;20266;-70
2023/04/13 08:11:04;;;;;;;8.40;6.10;;;9.90;99.90;;;;;;4917788;29;20227;-70
2023/04/13 08:13:30;;;;;;;8.77;7.97;;;10.10;99.90;;;;;;4917841;29;20231;-71
2023/04/13 08:15:56;;;;;;;4.67;4.40;;;10.30;99.90;;;;;;4917664;29;20179;-70
2023/04/13 08:18:23;;;;;;;6.30;4.50;;;10.50;99.90;;;;;;4917093;29;20190;-70
2023/04/13 08:20:49;;;;;;;5.33;4.93;;;10.80;99.90;;;;;;4917147;29;20266;-70
2023/04/13 08:23:15;;;;;;;6.07;4.43;;;10.70;99.90;;;;;;4900423;29;20187;-70
2023/04/13 08:25:41;;;;;;;8.00;4.37;;;10.70;99.90;;;;;;4900293;29;20277;-70
2023/04/13 08:28:08;;;;;;;8.03;7.37;;;11.00;99.90;;;;;;4901057;29;20250;-70
2023/04/13 08:30:34;;;;;;;19.00;18.00;;;11.20;99.90;;;;;;4918417;29;20262;-70
2023/04/13 08:33:00;;;;;;;18.60;17.67;;;11.60;99.90;;;;;;4900427;29;20651;-69
2023/04/13 08:35:26;;;;;;;30.97;29.40;;;11.60;99.90;;;;;;4917101;29;20495;-69
2023/04/13 08:37:52;;;;;;;29.17;27.37;;;11.70;99.90;;;;;;4900345;29;20225;-69
2023/04/13 08:40:19;;;;;;;34.83;32.73;;;11.80;99.90;;;;;;4916606;29;20183;-70
2023/04/13 08:42:48;;;;;;;10.73;9.93;;;11.90;99.90;;;;;;4917056;29;20183;-70
2023/04/13 08:45:15;;;;;;;11.73;10.70;;;11.80;99.90;;;;;;4916854;29;20222;-70
2023/04/13 08:47:41;;;;;;;12.20;11.23;;;11.80;99.90;;;;;;4917003;29;20238;-70
2023/04/13 08:50:08;;;;;;;6.60;6.10;;;11.80;99.90;;;;;;4899574;29;20187;-70
2023/04/13 08:52:35;;;;;;;4.53;4.17;;;12.00;99.90;;;;;;4899805;29;20207;-70
2023/04/13 08:55:03;;;;;;;5.17;4.67;;;11.90;99.90;;;;;;4899823;29;20187;-70
2023/04/13 08:57:30;;;;;;;5.33;3.67;;;11.80;99.90;;;;;;4899908;29;20678;-71
2023/04/13 08:59:57;;;;;;;4.77;3.70;;;11.60;99.90;;;;;;4899423;29;20194;-71
2023/04/13 09:02:27;;;;;;;4.57;3.33;;;11.70;99.90;;;;;;4916579;29;20230;-70
2023/04/13 09:04:56;;;;;;;3.90;3.60;;;11.80;99.90;;;;;;4899467;29;20207;-69
2023/04/13 09:07:25;;;;;;;5.97;3.50;;;11.80;99.90;;;;;;4916935;29;20672;-71
2023/04/13 09:09:57;;;;;;;8.80;3.80;;;11.90;99.90;;;;;;4916810;29;20183;-70
2023/04/13 09:12:24;;;;;;;4.13;3.77;;;12.10;99.90;;;;;;4917140;29;20580;-70
2023/04/13 09:14:50;;;;;;;7.27;3.70;;;12.10;99.90;;;;;;4916692;29;20183;-70
2023/04/13 09:17:27;;;;;;;5.97;3.97;;;11.80;99.90;;;;;;4916507;29;20537;-71
2023/04/13 09:20:09;;;;;;;6.53;4.57;;;11.70;99.90;;;;;;4899469;29;20194;-71
2023/04/13 09:22:35;;;;;;;4.10;3.80;;;11.70;99.90;;;;;;4916590;29;20241;-72
2023/04/13 09:25:03;;;;;;;5.87;5.37;;;11.80;99.90;;;;;;4916469;29;20730;-71
2023/04/13 09:27:30;;;;;;;21.27;19.63;;;11.60;99.90;;;;;;4916839;29;20187;-72
2023/04/13 09:29:56;;;;;;;39.93;37.73;;;11.20;99.90;;;;;;4916249;29;20636;-71
2023/04/13 09:32:26;;;;;;;36.70;34.80;;;11.20;99.90;;;;;;4916350;29;20706;-71
2023/04/13 09:34:59;;;;;;;30.00;28.33;;;11.10;99.90;;;;;;4899020;29;20187;-70
2023/04/13 09:37:27;;;;;;;35.37;33.37;;;11.30;99.90;;;;;;4915843;29;20570;-71
2023/04/13 09:39:53;;;;;;;32.20;30.60;;;11.40;99.90;;;;;;4898733;29;20686;-71
2023/04/13 09:42:19;;;;;;;35.53;33.67;;;11.60;99.90;;;;;;4915727;29;20211;-70
2023/04/13 09:44:57;;;;;;;21.33;20.13;;;12.00;99.90;;;;;;4915506;29;20221;-70
2023/04/13 09:47:24;;;;;;;9.60;9.10;;;12.70;99.90;;;;;;4898910;29;20190;-71
2023/04/13 09:49:51;;;;;;;4.93;4.10;;;13.30;99.90;;;;;;4915397;29;20244;-72
2023/04/13 09:52:19;;;;;;;4.17;3.37;;;13.50;99.90;;;;;;4915590;29;20262;-71
2023/04/13 09:54:49;;;;;;;4.83;3.40;;;13.90;99.90;;;;;;4898736;29;20234;-71
2023/04/13 09:57:29;;;;;;;6.40;5.90;;;14.30;99.90;;;;;;4915740;29;20191;-71
2023/04/13 09:59:59;;;;;;;6.73;5.60;;;14.30;99.90;;;;;;4915251;29;20191;-71
2023/04/13 10:02:25;;;;;;;10.63;6.60;;;14.70;99.90;;;;;;4915392;29;20218;-71
2023/04/13 10:04:51;;;;;;;5.53;4.97;;;14.90;99.90;;;;;;4915402;29;20214;-71
2023/04/13 10:07:18;;;;;;;6.77;5.00;;;14.60;99.90;;;;;;4898720;29;20334;-71
2023/04/13 10:09:44;;;;;;;5.60;5.23;;;14.90;99.90;;;;;;4914880;29;20286;-71
2023/04/13 10:12:11;;;;;;;5.40;4.90;;;14.90;99.90;;;;;;4915134;29;20203;-72
2023/04/13 10:14:39;;;;;;;5.87;5.37;;;14.50;99.90;;;;;;4915124;29;20557;-71
2023/04/13 10:17:20;;;;;;;6.70;6.23;;;14.00;99.90;;;;;;4914641;29;20187;-71
2023/04/13 10:19:48;;;;;;;6.00;5.47;;;13.40;99.90;;;;;;4898042;29;20197;-70
2023/04/13 10:22:16;;;;;;;4.53;4.13;;;13.10;99.90;;;;;;4915182;29;20207;-71
2023/04/13 10:24:43;;;;;;;5.13;4.00;;;12.70;99.90;;;;;;4915542;29;20282;-71
2023/04/13 10:27:19;;;;;;;6.87;5.27;;;12.60;99.90;;;;;;4915151;29;20191;-71
2023/04/13 10:29:47;;;;;;;8.17;5.70;;;12.50;99.90;;;;;;4914771;29;20211;-71
2023/04/13 10:32:26;;;;;;;7.03;5.10;;;12.30;99.90;;;;;;4899370;29;20207;-71
2023/04/13 10:34:53;;;;;;;8.07;5.30;;;12.30;99.90;;;;;;4917358;29;20225;-72
2023/04/13 10:37:27;;;;;;;5.77;4.30;;;12.10;99.90;;;;;;4916614;29;20270;-71
2023/04/13 10:40:09;;;;;;;5.63;5.23;;;12.00;99.90;;;;;;4914930;29;20191;-71
2023/04/13 10:42:53;;;;;;;17.63;16.50;;;11.60;99.90;;;;;;4915210;29;20206;-71
2023/04/13 10:45:26;;;;;;;29.33;27.33;;;11.10;99.90;;;;;;4898207;29;20567;-71
2023/04/13 10:47:53;;;;;;;16.20;15.10;;;10.70;99.90;;;;;;4897882;29;20226;-71
2023/04/13 10:50:21;;;;;;;10.80;5.37;;;10.60;99.90;;;;;;4897663;29;20273;-71
2023/04/13 10:53:05;;;;;;;7.90;7.30;;;10.60;99.90;;;;;;4915116;29;20221;-71
2023/04/13 10:55:34;;;;;;;11.60;10.37;;;10.40;99.90;;;;;;4897965;29;20278;-71
2023/04/13 10:58:02;;;;;;;4.73;4.00;;;10.00;99.90;;;;;;4898084;29;20183;-71
2023/04/13 11:00:29;;;;;;;7.10;6.50;;;9.70;99.90;;;;;;4897466;29;20189;-70
2023/04/13 11:02:57;;;;;;;10.23;9.57;;;9.40;99.90;;;;;;4897941;29;20187;-71
2023/04/13 11:05:25;;;;;;;12.73;11.63;;;9.50;99.90;;;;;;4914717;29;20215;-71
2023/04/13 11:07:51;;;;;;;15.83;14.77;;;9.60;99.90;;;;;;4914629;29;20234;-71
2023/04/13 11:10:28;;;;;;;33.57;31.33;;;9.70;99.90;;;;;;4914565;29;20195;-70
2023/04/13 11:12:56;;;;;;;36.80;34.77;;;10.00;99.90;;;;;;4897903;29;20280;-72
2023/04/13 11:15:23;;;;;;;26.50;24.70;;;10.00;99.90;;;;;;4915567;29;20207;-71
2023/04/13 11:17:53;;;;;;;21.77;20.40;;;10.00;99.90;;;;;;4914831;29;20462;-71
2023/04/13 11:20:28;;;;;;;21.80;20.60;;;9.80;99.90;;;;;;4914226;29;20671;-70
2023/04/13 11:22:56;;;;;;;14.87;13.40;;;9.70;99.90;;;;;;4914918;29;20194;-70
2023/04/13 11:25:22;;;;;;;7.20;6.40;;;9.70;99.90;;;;;;4914502;29;20242;-70
2023/04/13 11:27:58;;;;;;;7.17;6.53;;;9.90;99.90;;;;;;4915344;29;20218;-71
2023/04/13 11:30:25;;;;;;;6.07;4.73;;;10.30;99.90;;;;;;4917729;29;20551;-71
2023/04/13 11:32:52;;;;;;;15.27;14.13;;;10.60;99.90;;;;;;4901241;29;20179;-71
2023/04/13 11:35:19;;;;;;;31.90;29.77;;;11.00;99.90;;;;;;4917991;29;20247;-71
2023/04/13 11:37:51;;;;;;;23.77;22.33;;;11.20;99.90;;;;;;4918110;29;20183;-71
2023/04/13 11:40:26;;;;;;;15.63;14.43;;;11.50;99.90;;;;;;4917622;29;20555;-71
2023/04/13 11:42:57;;;;;;;7.80;6.53;;;11.80;99.90;;;;;;4917952;29;20197;-71
2023/04/13 11:45:28;;;;;;;7.03;4.83;;;12.10;99.90;;;;;;4917788;29;20211;-71
2023/04/13 11:47:55;;;;;;;10.87;9.83;;;12.00;99.90;;;;;;4901643;29;20207;-71
2023/04/13 11:50:22;;;;;;;12.03;10.93;;;11.90;99.90;;;;;;4917449;29;20195;-71
2023/04/13 11:52:50;;;;;;;9.30;8.70;;;12.00;99.90;;;;;;4917728;29;20197;-71
2023/04/13 11:55:17;;;;;;;8.93;8.13;;;12.00;99.90;;;;;;4917583;29;20183;-71
2023/04/13 11:57:44;;;;;;;8.27;7.33;;;11.90;99.90;;;;;;4917685;29;20249;-71
2023/04/13 12:00:22;;;;;;;7.57;6.87;;;11.90;99.90;;;;;;4900308;29;20183;-71
2023/04/13 12:02:50;;;;;;;8.53;7.73;;;11.90;99.90;;;;;;4917754;29;20334;-71
2023/04/13 12:05:21;;;;;;;9.70;7.73;;;12.00;99.90;;;;;;4900996;29;20665;-71
2023/04/13 12:07:47;;;;;;;7.93;7.27;;;12.10;99.90;;;;;;4917873;29;20194;-71
2023/04/13 12:10:26;;;;;;;5.73;5.20;;;12.10;99.90;;;;;;4900351;29;20184;-71
2023/04/13 12:12:59;;;;;;;7.87;6.53;;;12.00;99.90;;;;;;4917534;29;20643;-70
2023/04/13 12:15:27;;;;;;;10.67;5.40;;;11.80;99.90;;;;;;4900456;29;20201;-71
2023/04/13 12:17:58;;;;;;;8.90;8.23;;;11.30;99.90;;;;;;4900581;29;20694;-71
2023/04/13 12:20:25;;;;;;;7.10;6.47;;;10.80;99.90;;;;;;4916951;29;20191;-71
2023/04/13 12:22:51;;;;;;;6.23;5.70;;;10.20;99.90;;;;;;4917588;29;20230;-71
2023/04/13 12:25:22;;;;;;;63.17;58.87;;;9.80;99.90;;;;;;4917403;29;20846;-71
2023/04/13 12:27:50;;;;;;;11.03;7.33;;;9.50;99.90;;;;;;4917459;29;20241;-71
2023/04/13 12:30:17;;;;;;;9.13;7.50;;;9.40;99.90;;;;;;4916740;29;20187;-72
2023/04/13 12:32:46;;;;;;;9.27;7.93;;;9.40;99.90;;;;;;4900230;29;20263;-70
2023/04/13 12:35:13;;;;;;;7.03;6.63;;;9.30;99.90;;;;;;4900144;29;20270;-70
2023/04/13 12:37:42;;;;;;;5.83;5.43;;;9.30;99.90;;;;;;4916744;29;20711;-70
2023/04/13 12:40:11;;;;;;;12.03;11.10;;;9.10;99.90;;;;;;4915968;29;20559;-71
2023/04/13 12:42:46;;;;;;;68.57;64.87;;;9.00;99.90;;;;;;4916949;29;20274;-70
2023/04/13 12:45:13;;;;;;;12.03;10.27;;;8.80;99.90;;;;;;4916801;29;20285;-70
2023/04/13 12:47:39;;;;;;;14.87;13.50;;;8.80;99.90;;;;;;4916908;29;20213;-72
2023/04/13 12:50:07;;;;;;;22.67;21.47;;;8.80;99.90;;;;;;4916442;29;20215;-71
2023/04/13 12:52:33;;;;;;;17.63;16.70;;;8.70;99.90;;;;;;4916716;29;20203;-71
2023/04/13 12:55:00;;;;;;;9.40;8.70;;;8.80;99.90;;;;;;4916719;29;20187;-71
2023/04/13 12:57:27;;;;;;;7.43;7.03;;;8.80;99.90;;;;;;4916661;29;20179;-71
2023/04/13 12:59:54;;;;;;;9.63;8.73;;;9.00;99.90;;;;;;4916265;29;20201;-71
2023/04/13 13:02:24;;;;;;;6.73;5.73;;;9.10;99.90;;;;;;4916423;29;20234;-71
2023/04/13 13:04:50;;;;;;;12.53;11.77;;;9.50;99.90;;;;;;4916418;29;20218;-70
2023/04/13 13:07:17;;;;;;;43.60;41.20;;;9.80;99.90;;;;;;4916454;29;20648;-70
2023/04/13 13:09:43;;;;;;;41.63;39.40;;;9.90;99.90;;;;;;4916053;29;20191;-71
2023/04/13 13:12:09;;;;;;;7.60;6.87;;;10.10;99.90;;;;;;4916348;29;20691;-70
2023/04/13 13:14:35;;;;;;;4.37;3.97;;;10.50;99.90;;;;;;4899312;29;20183;-70
2023/04/13 13:17:02;;;;;;;7.87;7.37;;;10.80;99.90;;;;;;4899298;29;20186;-70
2023/04/13 13:19:28;;;;;;;18.20;17.13;;;10.90;99.90;;;;;;4915894;29;20274;-70
2023/04/13 13:21:54;;;;;;;15.17;14.37;;;11.20;99.90;;;;;;4916010;29;20235;-70
2023/04/13 13:24:20;;;;;;;7.30;6.87;;;11.50;99.90;;;;;;4916027;29;20192;-70
2023/04/13 13:26:46;;;;;;;7.33;5.40;;;11.90;99.90;;;;;;4916114;29;20297;-71
2023/04/13 13:29:12;;;;;;;6.57;6.17;;;12.20;99.90;;;;;;4898838;29;20179;-71
2023/04/13 13:31:40;;;;;;;5.90;5.63;;;12.40;99.90;;;;;;4915956;29;20230;-71
2023/04/13 13:34:06;;;;;;;5.33;5.07;;;12.50;99.90;;;;;;4915920;29;20187;-71
2023/04/13 13:36:31;;;;;;;5.17;4.83;;;12.90;99.90;;;;;;4915881;29;20195;-71
2023/04/13 13:38:58;;;;;;;7.60;7.00;;;13.20;99.90;;;;;;4898660;29;20187;-71
2023/04/13 13:41:24;;;;;;;17.83;16.97;;;13.40;99.90;;;;;;4915664;29;20298;-71
2023/04/13 13:43:50;;;;;;;8.93;8.23;;;13.30;99.90;;;;;;4915766;29;20187;-71
2023/04/13 13:46:17;;;;;;;19.00;17.97;;;13.60;99.90;;;;;;4915576;29;20261;-71
2023/04/13 13:48:43;;;;;;;16.43;15.43;;;13.50;99.90;;;;;;4915395;29;20322;-71
2023/04/13 13:51:09;;;;;;;32.20;30.60;;;13.90;99.90;;;;;;4914977;29;20249;-71
2023/04/13 13:53:35;;;;;;;25.80;24.50;;;14.10;99.90;;;;;;4898475;29;20183;-71
2023/04/13 13:56:04;;;;;;;15.13;14.40;;;14.10;99.90;;;;;;4898839;29;20190;-71
2023/04/13 13:58:30;;;;;;;13.30;12.60;;;14.40;99.90;;;;;;4898418;29;20300;-71
2023/04/13 14:00:56;;;;;;;8.20;7.80;;;14.70;99.90;;;;;;4898453;29;20313;-71
2023/04/13 14:03:22;;;;;;;6.00;5.50;;;15.10;99.90;;;;;;4898838;29;20387;-70
2023/04/13 14:05:48;;;;;;;4.37;4.17;;;15.20;99.90;;;;;;4915986;29;20219;-71
2023/04/13 14:08:14;;;;;;;4.43;4.03;;;14.90;99.90;;;;;;4915545;29;20183;-71
2023/04/13 14:10:46;;;;;;;3.93;3.63;;;14.50;99.90;;;;;;4897850;29;20206;-71
2023/04/13 14:13:12;;;;;;;4.10;3.37;;;14.40;99.90;;;;;;4915066;29;20186;-71
2023/04/13 14:15:37;;;;;;;3.93;3.63;;;13.90;99.90;;;;;;4915033;29;20554;-70
2023/04/13 14:18:03;;;;;;;4.00;3.80;;;13.90;99.90;;;;;;4898635;29;20191;-71
2023/04/13 14:20:30;;;;;;;4.37;3.93;;;14.00;99.90;;;;;;4915695;29;20238;-71
2023/04/13 14:22:56;;;;;;;4.87;4.57;;;13.90;99.90;;;;;;4916402;29;20187;-71
2023/04/13 14:25:22;;;;;;;3.77;3.57;;;13.70;99.90;;;;;;4915890;29;20233;-71
2023/04/13 14:27:49;;;;;;;4.97;4.67;;;13.50;99.90;;;;;;4915149;29;20771;-71
2023/04/13 14:30:16;;;;;;;5.07;4.77;;;13.40;99.90;;;;;;4914978;29;20270;-71
2023/04/13 14:32:43;;;;;;;5.70;5.17;;;13.60;99.90;;;;;;4915093;29;20183;-70
2023/04/13 14:35:09;;;;;;;8.03;7.30;;;13.60;99.90;;;;;;4915306;29;20190;-72
2023/04/13 14:37:35;;;;;;;13.17;12.27;;;13.40;99.90;;;;;;4915696;29;20198;-71
2023/04/13 14:40:06;;;;;;;14.17;13.43;;;13.20;99.90;;;;;;4915054;29;20194;-70
2023/04/13 14:42:33;;;;;;;43.00;40.30;;;12.80;99.90;;;;;;4915148;29;20630;-71
2023/04/13 14:44:59;;;;;;;22.07;20.83;;;12.30;99.90;;;;;;4915265;29;20297;-70
2023/04/13 14:47:24;;;;;;;9.47;8.97;;;11.90;99.90;;;;;;4915324;29;20198;-70
2023/04/13 14:49:51;;;;;;;9.50;8.90;;;11.70;99.90;;;;;;4915549;29;20183;-72
2023/04/13 14:52:16;;;;;;;13.03;12.13;;;11.50;99.90;;;;;;4915252;29;20678;-71
2023/04/13 14:54:42;;;;;;;13.80;12.80;;;11.20;99.90;;;;;;4915442;29;20207;-71
2023/04/13 14:57:09;;;;;;;12.07;11.37;;;11.10;99.90;;;;;;4899052;29;20214;-70
2023/04/13 14:59:35;;;;;;;5.23;4.83;;;11.10;99.90;;;;;;4897879;29;20182;-71
2023/04/13 15:02:00;;;;;;;7.33;6.70;;;11.30;99.90;;;;;;4914782;29;20215;-71
2023/04/13 15:04:26;;;;;;;8.67;8.17;;;11.30;99.90;;;;;;4901564;29;20194;-72
2023/04/13 15:06:52;;;;;;;5.80;5.50;;;11.20;99.90;;;;;;4902032;29;20178;-71
2023/04/13 15:09:18;;;;;;;6.97;6.37;;;11.00;99.90;;;;;;4901480;29;20182;-71
2023/04/13 15:11:44;;;;;;;5.27;4.97;;;11.00;99.90;;;;;;4918473;29;20207;-72
2023/04/13 15:14:10;;;;;;;7.37;6.97;;;11.00;99.90;;;;;;4933981;23;20330;-74
2023/04/13 15:16:36;;;;;;;7.10;6.67;;;10.70;99.90;;;;;;4920797;29;20673;-74
2023/04/13 15:19:02;;;;;;;5.27;5.07;;;10.70;99.90;;;;;;4920308;29;20190;-74
2023/04/13 15:21:28;;;;;;;5.30;5.00;;;10.60;99.90;;;;;;4937954;29;20206;-74
2023/04/13 15:23:54;;;;;;;3.80;3.60;;;10.50;99.90;;;;;;4911007;29;20242;-74
2023/04/13 15:26:22;;;;;;;4.27;4.07;;;10.50;99.90;;;;;;4918478;29;20623;-74
2023/04/13 15:28:48;;;;;;;3.50;3.40;;;10.60;99.90;;;;;;4901658;29;20548;-74
2023/04/13 15:31:14;;;;;;;4.17;4.00;;;10.60;99.90;;;;;;4918281;29;20183;-74
2023/04/13 15:33:40;;;;;;;9.00;8.60;;;10.60;99.90;;;;;;4918186;29;20207;-73
2023/04/13 15:36:06;;;;;;;7.10;6.70;;;10.60;99.90;;;;;;4901385;29;20198;-74
2023/04/13 15:38:31;;;;;;;4.27;4.07;;;10.60;99.90;;;;;;4918007;29;20193;-73
2023/04/13 15:40:57;;;;;;;7.97;7.67;;;10.70;99.90;;;;;;4902015;29;20635;-73
2023/04/13 15:43:23;;;;;;;7.23;6.90;;;10.80;99.90;;;;;;4922019;29;20667;-74
2023/04/13 15:45:48;;;;;;;5.10;4.90;;;10.80;99.90;;;;;;4901680;29;20262;-74